Emporia, KS

5:15 AM CDT on September 02, 2014 (GMT -0500)
Timmerman School Area | Change Station
CLOSE
Current Station
Personal Weather Station
Location: Emporia, KS
Elevation: 1214 ft
Nearby Weather Stations

Elev 1214 ft 38.43 °N, 96.22 °W | Updated 57 seconds ago

Mostly Cloudy
Mostly Cloudy
68.7 °F
Feels Like 68.7 °F
N
0.0
Wind Variable Wind from SE
Gusts 0.0 mph

Today
High -- | Low -- °F
--% Chance of Precip.
Yesterday
High -- | Low -- °F
Precip. -- in
6:55 AM 7:53 PM
Waxing Crescent, 50% visible
Pressure 29.90 in
Visibility 6.0 miles
Clouds Mostly Cloudy 500 ft
Dew Point 68 °F
Humidity 99%
Rainfall 0.00 in
Snow Depth Not available.
UV 0 out of 12
Pollen 6.00 out of 12
Air Quality Not available.
Flu Activity Not available.
METAR KEMP 020953Z AUTO 00000KT 6SM BR BKN005 21/21 A2992 RMK AO2 SLP123 T02060206 $

More Conditions Fewer Conditions

Pressure 29.90 in
Visibility 6.0 miles
Clouds Mostly Cloudy 500 ft
Dew Point 68 °F
Humidity 99%
Rainfall 0.00 in
Snow Depth Not available.
UV 0 out of 12
Pollen 6.00 out of 12
Air Quality Not available.
Flu Activity Not available.
METAR KEMP 020953Z AUTO 00000KT 6SM BR BKN005 21/21 A2992 RMK AO2 SLP123 T02060206 $

More Conditions Fewer Conditions

10-Day Weather Forecast

Almanac

Astronomy

Sep. 02, 2014 Rise Set
Actual Time 6:55 AM CDT 7:53 PM CDT
Civil Twilight 6:28 AM CDT 8:20 PM CDT
Nautical Twilight 5:55 AM CDT 8:52 PM CDT
Astronomical Twilight 5:22 AM CDT 9:25 PM CDT
Moon 2:34 PM CDT 12:01 AM CDT
Length of Visible Light 13h 52m
Length of Day
12h 57m
Tomorrow will be 2m 23s shorter.
Waxing Crescent, 50% of the Moon is Illuminated
Today
Waxing Crescent
Sep 2
First Quarter
Sep 8
Full
Sep 15
Last Quarter
Sep 24
New

Today's Extremes

State Highs State Lows

Community

WunderPhotos

Upload Photos

1,749,611 photos uploaded!

WunderBlogs® & News

Nearby

Snow Depth

Station Depth Elevation
No new snow has been reported.

Earthquake Activity

City Distance Mag. Time & Date
Medford, Oklahoma 151 miles 3.3 11:58 PM CDT
2014-09-01
Enid, Oklahoma 158 miles 3.4 11:57 AM CDT
2014-08-31
Enid, Oklahoma 159 miles 3.7 2:20 AM CDT
2014-08-31
Minimum magnitude displayed is 2.5.

Coastal Water Temperatures

Place Temperature
No Stations Reporting

Nearby Weather Stations